createdAt,value
2023-04-12T00:01:30.186Z,94723.63
2023-04-12T00:03:57.996Z,94713.00
2023-04-12T00:06:32.112Z,94709.44
2023-04-12T00:09:00.079Z,94714.81
2023-04-12T00:11:28.412Z,94712.22
2023-04-12T00:13:56.505Z,94712.03
2023-04-12T00:16:23.650Z,94701.78
2023-04-12T00:18:51.480Z,94693.13
2023-04-12T00:21:19.573Z,94692.13
2023-04-12T00:23:49.444Z,94694.72
2023-04-12T00:26:17.138Z,94692.13
2023-04-12T00:28:45.990Z,94681.66
2023-04-12T00:31:13.840Z,94673.03
2023-04-12T00:33:41.638Z,94673.84
2023-04-12T00:36:10.102Z,94670.44
2023-04-12T00:38:37.742Z,94667.00
2023-04-12T00:41:07.411Z,94670.44
2023-04-12T00:43:35.026Z,94679.06
2023-04-12T00:46:03.018Z,94671.22
2023-04-12T00:48:32.077Z,94667.81
2023-04-12T00:51:01.060Z,94661.59
2023-04-12T00:53:29.638Z,94652.94
2023-04-12T00:55:57.853Z,94661.59
2023-04-12T00:58:26.824Z,94648.72
2023-04-12T01:00:54.756Z,94651.31
2023-04-12T01:03:24.146Z,94646.09
2023-04-12T01:06:05.549Z,94640.88
2023-04-12T01:08:44.007Z,94643.50
2023-04-12T01:11:19.453Z,94640.88
2023-04-12T01:13:56.898Z,94638.28
2023-04-12T01:16:31.983Z,94640.06
2023-04-12T01:19:05.116Z,94634.84
2023-04-12T01:21:46.085Z,94645.28
2023-04-12T01:24:24.662Z,94644.47
2023-04-12T01:26:52.888Z,94638.41
2023-04-12T01:29:23.353Z,94635.00
2023-04-12T01:31:54.292Z,94644.63
2023-04-12T01:34:24.120Z,94631.56
2023-04-12T01:36:52.999Z,94627.19
2023-04-12T01:39:21.434Z,94627.97
2023-04-12T01:41:49.210Z,94626.34
2023-04-12T01:44:17.976Z,94629.78
2023-04-12T01:46:48.118Z,94623.56
2023-04-12T01:49:16.960Z,94633.06
2023-04-12T01:51:52.205Z,94638.28
2023-04-12T01:54:23.830Z,94634.84
2023-04-12T01:56:57.850Z,94629.63
2023-04-12T01:59:29.385Z,94631.41
2023-04-12T02:01:59.192Z,94634.00
2023-04-12T02:04:28.488Z,94635.66
2023-04-12T02:06:56.597Z,94624.56
2023-04-12T02:09:24.486Z,94634.84
2023-04-12T02:11:52.138Z,94629.63
2023-04-12T02:14:20.086Z,94627.00
2023-04-12T02:16:48.148Z,94634.84
2023-04-12T02:19:17.643Z,94633.88
2023-04-12T02:21:46.719Z,94630.56
2023-04-12T02:24:14.390Z,94623.56
2023-04-12T02:26:42.035Z,94619.34
2023-04-12T02:29:10.510Z,94624.56
2023-04-12T02:31:39.380Z,94622.75
2023-04-12T02:34:07.066Z,94622.75
2023-04-12T02:36:37.959Z,94623.56
2023-04-12T02:39:05.976Z,94628.78
2023-04-12T02:41:34.465Z,94634.00
2023-04-12T02:44:02.123Z,94629.78
2023-04-12T02:46:29.977Z,94631.56
2023-04-12T02:48:57.897Z,94628.97
2023-04-12T02:51:26.117Z,94625.53
2023-04-12T02:53:55.345Z,94614.13
2023-04-12T02:56:24.721Z,94615.09
2023-04-12T02:58:52.499Z,94613.28
2023-04-12T03:01:20.150Z,94612.47
2023-04-12T03:03:47.818Z,94618.53
2023-04-12T03:06:15.474Z,94610.69
2023-04-12T03:08:43.060Z,94606.28
2023-04-12T03:11:11.986Z,94600.25
2023-04-12T03:13:39.621Z,94602.84
2023-04-12T03:16:23.351Z,94593.22
2023-04-12T03:18:51.717Z,94599.25
2023-04-12T03:21:19.555Z,94587.19
2023-04-12T03:23:47.186Z,94584.56
2023-04-12T03:26:16.183Z,94572.34
2023-04-12T03:28:45.801Z,94571.50
2023-04-12T03:31:13.589Z,94568.91
2023-04-12T03:33:41.600Z,94565.47
2023-04-12T03:36:10.645Z,94575.75
2023-04-12T03:38:38.273Z,94567.91
2023-04-12T03:41:06.531Z,94566.13
2023-04-12T03:43:37.452Z,94561.88
2023-04-12T03:46:05.703Z,94569.72
2023-04-12T03:48:33.569Z,94565.28
2023-04-12T03:51:08.580Z,94565.28
2023-04-12T03:53:36.914Z,94553.22
2023-04-12T03:56:04.646Z,94540.81
2023-04-12T03:58:33.876Z,94542.63
2023-04-12T04:01:06.127Z,94548.00
2023-04-12T04:03:35.044Z,94543.59
2023-04-12T04:06:03.442Z,94534.13
2023-04-12T04:08:32.550Z,94526.13
2023-04-12T04:11:00.533Z,94533.94
2023-04-12T04:13:28.160Z,94522.53
2023-04-12T04:16:01.301Z,94518.97
2023-04-12T04:18:30.298Z,94512.91
2023-04-12T04:20:58.520Z,94514.72
2023-04-12T04:23:27.757Z,94517.97
2023-04-12T04:25:55.413Z,94510.97
2023-04-12T04:28:23.065Z,94514.38
2023-04-12T04:30:51.609Z,94511.78
2023-04-12T04:33:19.957Z,94520.41
2023-04-12T04:35:49.113Z,94520.41
2023-04-12T04:38:16.817Z,94512.56
2023-04-12T04:40:44.435Z,94510.78
2023-04-12T04:43:13.925Z,94508.16
2023-04-12T04:45:42.925Z,94500.34
2023-04-12T04:48:10.583Z,94503.75
2023-04-12T04:50:38.172Z,94503.75
2023-04-12T04:53:07.108Z,94499.50
2023-04-12T04:55:34.733Z,94488.91
2023-04-12T04:58:02.351Z,94487.91
2023-04-12T05:00:30.369Z,94484.47
2023-04-12T05:02:58.231Z,94490.53
2023-04-12T05:05:26.038Z,94480.91
2023-04-12T05:07:53.717Z,94480.91
2023-04-12T05:10:23.272Z,94482.69
2023-04-12T05:12:50.909Z,94475.69
2023-04-12T05:15:20.042Z,94477.31
2023-04-12T05:17:47.730Z,94474.72
2023-04-12T05:20:15.364Z,94466.88
2023-04-12T05:22:43.000Z,94460.84
2023-04-12T05:25:11.291Z,94461.66
2023-04-12T05:27:40.295Z,94455.63
2023-04-12T05:30:09.369Z,94444.34
2023-04-12T05:32:36.977Z,94442.56
2023-04-12T05:35:04.805Z,94445.16
2023-04-12T05:37:32.476Z,94440.75
2023-04-12T05:40:00.064Z,94436.50
2023-04-12T05:42:28.414Z,94438.28
2023-04-12T05:44:57.413Z,94429.63
2023-04-12T05:47:25.046Z,94423.44
2023-04-12T05:49:52.693Z,94420.00
2023-04-12T05:52:20.573Z,94426.88
2023-04-12T05:54:48.852Z,94425.25
2023-04-12T05:57:17.645Z,94417.41
2023-04-12T05:59:45.453Z,94413.97
2023-04-12T06:02:14.605Z,94407.97
2023-04-12T06:04:49.304Z,94400.91
2023-04-12T06:07:19.270Z,94404.34
2023-04-12T06:09:47.339Z,94398.47
2023-04-12T06:12:14.966Z,94396.69
2023-04-12T06:14:42.705Z,94400.13
2023-04-12T06:17:10.371Z,94393.25
2023-04-12T06:19:39.337Z,94393.25
2023-04-12T06:22:06.999Z,94393.25
2023-04-12T06:24:34.704Z,94379.38
2023-04-12T06:27:02.319Z,94388.03
2023-04-12T06:29:29.910Z,94384.59
2023-04-12T06:31:57.584Z,94381.03
2023-04-12T06:34:25.259Z,94374.97
2023-04-12T06:36:54.224Z,94369.94
2023-04-12T06:39:22.042Z,94370.75
2023-04-12T06:41:50.495Z,94357.69
2023-04-12T06:44:18.458Z,94358.50
2023-04-12T06:46:46.533Z,94364.53
2023-04-12T06:49:14.176Z,94360.94
2023-04-12T06:51:41.742Z,94358.50
2023-04-12T06:54:10.787Z,94352.13
2023-04-12T06:56:39.456Z,94350.66
2023-04-12T06:59:07.100Z,94341.84
2023-04-12T07:01:34.711Z,94353.91
2023-04-12T07:04:02.541Z,94338.41
2023-04-12T07:06:30.235Z,94345.28
2023-04-12T07:08:58.202Z,94340.84
2023-04-12T07:11:28.198Z,94335.81
2023-04-12T07:13:56.213Z,94335.81
2023-04-12T07:16:23.882Z,94346.91
2023-04-12T07:18:51.464Z,94339.25
2023-04-12T07:21:19.074Z,94345.28
2023-04-12T07:23:51.036Z,94343.63
2023-04-12T07:26:19.046Z,94343.63
2023-04-12T07:28:48.003Z,94335.81
2023-04-12T07:31:15.594Z,94330.59
2023-04-12T07:33:43.648Z,94329.75
2023-04-12T07:36:12.497Z,94329.75
2023-04-12T07:38:40.130Z,94323.75
2023-04-12T07:41:07.826Z,94319.31
2023-04-12T07:43:35.429Z,94311.47
2023-04-12T07:46:08.369Z,94323.75
2023-04-12T07:48:36.200Z,94308.09
2023-04-12T07:51:03.879Z,94302.84
2023-04-12T07:53:31.535Z,94298.28
2023-04-12T07:55:59.150Z,94289.81
2023-04-12T07:58:26.794Z,94294.19
2023-04-12T08:00:54.735Z,94281.97
2023-04-12T08:03:24.351Z,94286.38
2023-04-12T08:05:54.186Z,94289.81
2023-04-12T08:08:22.654Z,94294.19
2023-04-12T08:10:50.574Z,94292.41
2023-04-12T08:13:18.473Z,94285.38
2023-04-12T08:15:47.264Z,94286.38
2023-04-12T08:18:15.314Z,94276.75
2023-04-12T08:20:45.006Z,94268.91
2023-04-12T08:23:12.697Z,94267.91
2023-04-12T08:25:40.608Z,94267.09
2023-04-12T08:28:08.856Z,94263.69
2023-04-12T08:30:36.737Z,94251.28
2023-04-12T08:33:04.670Z,94248.81
2023-04-12T08:35:32.765Z,94247.84
2023-04-12T08:38:07.288Z,94234.78
2023-04-12T08:40:34.969Z,94226.94
2023-04-12T08:43:03.911Z,94220.91
2023-04-12T08:45:35.398Z,94219.13
2023-04-12T08:48:04.316Z,94209.81
2023-04-12T08:50:32.827Z,94201.00
2023-04-12T08:53:01.809Z,94193.81
2023-04-12T08:55:29.628Z,94198.22
2023-04-12T08:57:58.559Z,94195.78
2023-04-12T09:00:27.305Z,94184.34
2023-04-12T09:02:55.088Z,94181.72
2023-04-12T09:05:29.610Z,94183.53
2023-04-12T09:07:57.738Z,94184.34
2023-04-12T09:10:34.234Z,94174.09
2023-04-12T09:13:02.128Z,94166.25
2023-04-12T09:15:30.293Z,94172.28
2023-04-12T09:18:09.262Z,94178.31
2023-04-12T09:20:37.357Z,94174.91
2023-04-12T09:23:18.754Z,94172.28
2023-04-12T09:25:51.715Z,94160.22
2023-04-12T09:28:24.552Z,94161.03
2023-04-12T09:30:53.518Z,94157.59
2023-04-12T09:33:23.235Z,94162.63
2023-04-12T09:35:51.141Z,94155.81
2023-04-12T09:38:18.993Z,94147.16
2023-04-12T09:40:48.586Z,94136.72
2023-04-12T09:43:16.618Z,94131.47
2023-04-12T09:45:44.216Z,94132.31
2023-04-12T09:48:20.925Z,94122.81
2023-04-12T09:50:48.948Z,94108.81
2023-04-12T09:53:18.217Z,94103.41
2023-04-12T09:55:50.144Z,94094.94
2023-04-12T09:58:21.286Z,94095.56
2023-04-12T10:00:49.544Z,94092.94
2023-04-12T10:03:17.336Z,94098.16
2023-04-12T10:05:45.115Z,94087.72
2023-04-12T10:08:12.848Z,94090.16
2023-04-12T10:10:40.845Z,94087.72
2023-04-12T10:13:11.366Z,94095.38
2023-04-12T10:15:40.412Z,94078.72
2023-04-12T10:18:08.514Z,94074.47
2023-04-12T10:20:37.096Z,94072.69
2023-04-12T10:23:07.773Z,94064.03
2023-04-12T10:25:36.040Z,94066.84
2023-04-12T10:28:17.270Z,94071.09
2023-04-12T10:30:45.219Z,94059.00
2023-04-12T10:33:14.642Z,94044.16
2023-04-12T10:35:54.380Z,94044.16
2023-04-12T10:38:24.956Z,94037.91
2023-04-12T10:41:08.540Z,94041.53
2023-04-12T10:43:37.783Z,94044.78
2023-04-12T10:46:06.824Z,94032.88
2023-04-12T10:48:36.149Z,94024.06
2023-04-12T10:51:15.150Z,94012.00
2023-04-12T10:53:42.823Z,94024.88
2023-04-12T10:56:39.326Z,94019.00
2023-04-12T10:59:08.670Z,94017.03
2023-04-12T11:01:38.807Z,94020.47
2023-04-12T11:04:18.145Z,94020.47
2023-04-12T11:06:58.522Z,94004.16
2023-04-12T11:09:28.529Z,94016.41
2023-04-12T11:11:59.194Z,94021.47
2023-04-12T11:14:31.194Z,94008.56
2023-04-12T11:17:21.948Z,93998.94
2023-04-12T11:19:53.229Z,94003.97
2023-04-12T11:22:23.030Z,93994.34
2023-04-12T11:24:52.500Z,93997.78
2023-04-12T11:27:21.515Z,93994.19
2023-04-12T11:29:52.440Z,93985.53
2023-04-12T11:32:20.221Z,93990.56
2023-04-12T11:34:48.341Z,93980.13
2023-04-12T11:37:16.455Z,93985.16
2023-04-12T11:39:45.416Z,93987.78
2023-04-12T11:42:17.945Z,93975.53
2023-04-12T11:47:20.177Z,93974.56
2023-04-12T11:49:49.213Z,93962.47
2023-04-12T11:52:17.875Z,93965.91
2023-04-12T11:54:46.995Z,93953.66
2023-04-12T11:57:16.849Z,93956.91
2023-04-12T11:59:45.777Z,93972.56
2023-04-12T12:04:50.927Z,93974.38
2023-04-12T12:07:19.965Z,93964.94
2023-04-12T12:09:48.215Z,93949.25
2023-04-12T12:12:16.138Z,93951.88
2023-04-12T12:14:47.224Z,93951.88
2023-04-12T12:17:17.040Z,93968.31
2023-04-12T12:19:46.360Z,93956.28
2023-04-12T12:22:20.006Z,93957.09
2023-04-12T12:24:51.005Z,93951.06
2023-04-12T12:27:23.763Z,93956.09
2023-04-12T12:29:53.438Z,93956.09
2023-04-12T12:32:23.151Z,93966.34
2023-04-12T12:34:52.222Z,93973.38
2023-04-12T12:37:24.569Z,93961.94
2023-04-12T12:40:13.568Z,93951.50
2023-04-12T12:42:54.609Z,93946.25
2023-04-12T12:45:23.977Z,93941.03
2023-04-12T12:47:53.908Z,93932.22
2023-04-12T12:50:25.060Z,93935.81
2023-04-12T12:52:55.317Z,93942.69
2023-04-12T12:55:24.292Z,93939.25
2023-04-12T12:58:06.585Z,93941.66
2023-04-12T13:00:36.375Z,93940.84
2023-04-12T13:03:04.478Z,93937.44
2023-04-12T13:05:32.527Z,93931.22
2023-04-12T13:08:01.469Z,93929.44
2023-04-12T13:10:29.092Z,93916.38
2023-04-12T13:12:56.729Z,93925.84
2023-04-12T13:15:24.939Z,93917.19
2023-04-12T13:17:53.415Z,93924.19
2023-04-12T13:20:21.647Z,93919.78
2023-04-12T13:22:49.518Z,93916.38
2023-04-12T13:25:19.722Z,93926.63
2023-04-12T13:27:49.817Z,93910.31
2023-04-12T13:30:17.786Z,93917.19
2023-04-12T13:32:45.723Z,93915.38
2023-04-12T13:35:14.335Z,93906.75
2023-04-12T13:37:42.060Z,93905.09
2023-04-12T13:40:10.776Z,93912.13
2023-04-12T13:42:39.762Z,93912.13
2023-04-12T13:45:08.650Z,93913.75
2023-04-12T13:47:36.438Z,93909.50
2023-04-12T13:50:04.308Z,93917.34
2023-04-12T13:52:32.001Z,93913.13
2023-04-12T13:54:59.681Z,93917.34
2023-04-12T13:57:27.419Z,93907.72
2023-04-12T13:59:56.363Z,93904.28
2023-04-12T14:02:24.049Z,93894.66
2023-04-12T14:04:52.970Z,93892.22
2023-04-12T14:07:21.263Z,93893.06
2023-04-12T14:09:49.375Z,93881.78
2023-04-12T14:12:16.988Z,93885.22
2023-04-12T14:14:44.618Z,93887.00
2023-04-12T14:17:13.654Z,93878.34
2023-04-12T14:19:41.327Z,93882.59
2023-04-12T14:22:08.943Z,93880.00
2023-04-12T14:24:36.858Z,93877.38
2023-04-12T14:27:04.876Z,93869.53
2023-04-12T14:29:32.864Z,93859.09
2023-04-12T14:32:00.534Z,93860.91
2023-04-12T14:34:31.043Z,93852.25
2023-04-12T14:37:00.308Z,93847.03
2023-04-12T14:39:28.155Z,93851.25
2023-04-12T14:41:56.859Z,93845.22
2023-04-12T14:44:26.139Z,93840.00
2023-04-12T14:46:54.175Z,93833.78
2023-04-12T14:49:21.877Z,93834.59
2023-04-12T14:51:50.872Z,93839.00
2023-04-12T14:54:18.476Z,93842.41
2023-04-12T14:56:52.037Z,93845.84
2023-04-12T14:59:21.634Z,93848.47
2023-04-12T15:01:49.513Z,93843.25
2023-04-12T15:04:17.329Z,93835.41
2023-04-12T15:06:45.375Z,93837.19
2023-04-12T15:09:15.705Z,93838.00
2023-04-12T15:11:47.222Z,93841.44
2023-04-12T15:14:18.101Z,93841.44
2023-04-12T15:16:49.079Z,93849.09
2023-04-12T15:19:21.673Z,93848.47
2023-04-12T15:21:51.431Z,93838.81
2023-04-12T15:24:20.853Z,93838.00
2023-04-12T15:26:50.781Z,93828.38
2023-04-12T15:29:19.738Z,93836.22
2023-04-12T15:31:47.632Z,93835.41
2023-04-12T15:34:15.383Z,93831.81
2023-04-12T15:36:43.933Z,93830.19
2023-04-12T15:39:12.497Z,93826.75
2023-04-12T15:41:42.835Z,93828.38
2023-04-12T15:44:13.003Z,93821.53
2023-04-12T15:46:40.704Z,93819.72
2023-04-12T15:49:09.075Z,93818.91
2023-04-12T15:51:36.765Z,93817.13
2023-04-12T15:54:06.515Z,93816.31
2023-04-12T15:56:35.092Z,93817.13
2023-04-12T15:59:04.095Z,93813.69
2023-04-12T16:01:31.765Z,93819.72
2023-04-12T16:03:59.627Z,93831.00
2023-04-12T16:06:28.283Z,93818.91
2023-04-12T16:08:57.338Z,93816.31
2023-04-12T16:11:25.394Z,93811.91
2023-04-12T16:13:54.097Z,93800.63
2023-04-12T16:16:24.641Z,93809.28
2023-04-12T16:18:53.207Z,93801.44
2023-04-12T16:21:22.203Z,93799.66
2023-04-12T16:23:51.395Z,93797.03
2023-04-12T16:26:21.729Z,93798.84
2023-04-12T16:28:50.329Z,93802.25
2023-04-12T16:31:19.747Z,93813.53
2023-04-12T16:33:51.001Z,93809.09
2023-04-12T16:36:19.426Z,93801.25
2023-04-12T16:38:47.295Z,93800.47
2023-04-12T16:41:17.115Z,93801.25
2023-04-12T16:43:45.544Z,93790.81
2023-04-12T16:46:14.960Z,93798.47
2023-04-12T16:48:42.929Z,93789.00
2023-04-12T16:51:11.879Z,93786.41
2023-04-12T16:53:39.519Z,93784.59
2023-04-12T16:56:07.635Z,93782.00
2023-04-12T16:58:35.347Z,93779.38
2023-04-12T17:01:03.184Z,93779.38
2023-04-12T17:03:32.850Z,93781.19
2023-04-12T17:06:00.599Z,93786.41
2023-04-12T17:08:29.668Z,93775.94
2023-04-12T17:10:57.349Z,93784.59
2023-04-12T17:13:24.932Z,93776.78
2023-04-12T17:15:52.599Z,93789.00
2023-04-12T17:18:20.383Z,93781.19
2023-04-12T17:20:48.288Z,93779.56
2023-04-12T17:23:16.837Z,93771.75
2023-04-12T17:25:46.419Z,93778.75
2023-04-12T17:28:14.350Z,93780.34
2023-04-12T17:30:42.292Z,93780.34
2023-04-12T17:33:09.879Z,93780.34
2023-04-12T17:35:37.544Z,93781.19
2023-04-12T17:38:05.167Z,93777.75
2023-04-12T17:40:32.828Z,93768.13
2023-04-12T17:43:01.841Z,93766.53
2023-04-12T17:45:29.819Z,93782.97
2023-04-12T17:47:57.539Z,93777.75
2023-04-12T17:50:25.516Z,93768.31
2023-04-12T17:52:55.082Z,93773.34
2023-04-12T17:55:23.638Z,93788.19
2023-04-12T17:57:51.509Z,93788.19
2023-04-12T18:00:23.318Z,93796.84
2023-04-12T18:02:51.440Z,93798.66
2023-04-12T18:05:19.316Z,93794.25
2023-04-12T18:07:47.021Z,93789.00
2023-04-12T18:10:18.905Z,93809.91
2023-04-12T18:12:48.140Z,93811.53
2023-04-12T18:15:15.853Z,93805.50
2023-04-12T18:17:44.936Z,93819.38
2023-04-12T18:20:13.959Z,93826.19
2023-04-12T18:22:42.228Z,93829.63
2023-04-12T18:25:11.665Z,93833.22
2023-04-12T18:27:39.359Z,93842.69
2023-04-12T18:30:08.439Z,93842.50
2023-04-12T18:32:36.118Z,93850.34
2023-04-12T18:35:05.625Z,93852.94
2023-04-12T18:37:33.332Z,93850.34
2023-04-12T18:40:00.995Z,93861.41
2023-04-12T18:42:28.666Z,93876.28
2023-04-12T18:44:58.212Z,93872.88
2023-04-12T18:47:26.892Z,93882.50
2023-04-12T18:49:54.580Z,93886.75
2023-04-12T18:52:23.582Z,93900.78
2023-04-12T18:54:51.316Z,93892.94
2023-04-12T18:57:19.269Z,93892.13
2023-04-12T18:59:48.832Z,93889.50
2023-04-12T19:02:18.088Z,93898.16
2023-04-12T19:04:45.898Z,93897.34
2023-04-12T19:07:14.205Z,93900.97
2023-04-12T19:09:43.158Z,93904.19
2023-04-12T19:12:11.229Z,93909.44
2023-04-12T19:14:38.822Z,93899.13
2023-04-12T19:17:06.453Z,93891.16
2023-04-12T19:19:34.031Z,93896.38
2023-04-12T19:22:01.625Z,93897.34
2023-04-12T19:24:29.389Z,93891.16
2023-04-12T19:26:58.366Z,93888.69
2023-04-12T19:29:26.059Z,93895.56
2023-04-12T19:31:54.339Z,93896.38
2023-04-12T19:34:21.986Z,93899.78
2023-04-12T19:36:49.654Z,93898.97
2023-04-12T19:39:18.473Z,93900.59
2023-04-12T19:41:48.470Z,93898.97
2023-04-12T19:44:17.494Z,93901.41
2023-04-12T19:46:45.208Z,93904.00
2023-04-12T19:49:13.334Z,93911.84
2023-04-12T19:51:41.093Z,93917.06
2023-04-12T19:54:09.964Z,93912.66
2023-04-12T19:56:37.641Z,93922.31
2023-04-12T19:59:06.467Z,93923.13
2023-04-12T20:01:47.713Z,93918.72
2023-04-12T20:04:16.135Z,93919.50
2023-04-12T20:06:44.748Z,93922.31
2023-04-12T20:09:13.937Z,93921.31
2023-04-12T20:11:42.183Z,93920.50
2023-04-12T20:14:09.840Z,93917.88
2023-04-12T20:16:42.613Z,93931.78
2023-04-12T20:19:11.065Z,93924.91
2023-04-12T20:21:39.088Z,93924.91
2023-04-12T20:24:08.697Z,93925.72
2023-04-12T20:26:37.393Z,93924.91
2023-04-12T20:29:05.373Z,93925.72
2023-04-12T20:31:33.452Z,93926.53
2023-04-12T20:34:04.107Z,93927.53
2023-04-12T20:36:31.758Z,93923.13
2023-04-12T20:38:59.512Z,93926.53
2023-04-12T20:41:28.035Z,93927.53
2023-04-12T20:43:55.939Z,93924.09
2023-04-12T20:46:25.972Z,93930.13
2023-04-12T20:48:56.261Z,93937.16
2023-04-12T20:51:25.669Z,93943.19
2023-04-12T20:53:53.271Z,93955.44
2023-04-12T20:56:20.849Z,93972.94
2023-04-12T20:58:49.816Z,93976.53
2023-04-12T21:01:18.615Z,93979.97
2023-04-12T21:03:46.652Z,93988.78
2023-04-12T21:06:14.522Z,93987.78
2023-04-12T21:08:44.439Z,94000.22
2023-04-12T21:11:12.033Z,94001.00
2023-04-12T21:13:40.699Z,94007.06
2023-04-12T21:16:09.720Z,94003.81
2023-04-12T21:18:37.380Z,94011.47
2023-04-12T21:21:06.040Z,94010.47
2023-04-12T21:23:34.169Z,94017.50
2023-04-12T21:26:04.074Z,94011.47
2023-04-12T21:28:31.777Z,94020.94
2023-04-12T21:30:59.382Z,94025.53
2023-04-12T21:33:26.989Z,94025.34
2023-04-12T21:35:55.605Z,94035.97
2023-04-12T21:38:23.971Z,94034.97
2023-04-12T21:40:51.958Z,94040.19
2023-04-12T21:43:20.958Z,94043.63
2023-04-12T21:45:48.581Z,94060.94
2023-04-12T21:48:16.403Z,94060.94
2023-04-12T21:50:44.034Z,94069.75
2023-04-12T21:53:11.640Z,94055.88
2023-04-12T21:55:39.364Z,94053.25
2023-04-12T21:58:07.457Z,94065.34
2023-04-12T22:00:36.929Z,94060.31
2023-04-12T22:03:05.237Z,94075.97
2023-04-12T22:05:33.361Z,94057.69
2023-04-12T22:08:00.972Z,94051.66
2023-04-12T22:10:29.232Z,94043.00
2023-04-12T22:12:56.844Z,94023.72
2023-04-12T22:15:24.609Z,94015.06
2023-04-12T22:17:53.814Z,94016.06
2023-04-12T22:20:21.687Z,94034.34
2023-04-12T22:22:49.476Z,94043.19
2023-04-12T22:25:18.346Z,94034.34
2023-04-12T22:27:46.425Z,94051.00
2023-04-12T22:30:14.770Z,94048.41
2023-04-12T22:32:42.475Z,94059.66
2023-04-12T22:35:12.088Z,94068.47
2023-04-12T22:37:41.157Z,94064.91
2023-04-12T22:40:12.340Z,94062.44
2023-04-12T22:42:45.913Z,94049.38
2023-04-12T22:45:14.085Z,94049.38
2023-04-12T22:47:42.961Z,94055.41
2023-04-12T22:50:13.256Z,94054.59
2023-04-12T22:52:41.840Z,94058.22
2023-04-12T22:55:12.551Z,94056.44
2023-04-12T22:57:40.178Z,94045.16
2023-04-12T23:00:14.957Z,94058.03
2023-04-12T23:02:44.966Z,94050.38
2023-04-12T23:05:14.079Z,94045.97
2023-04-12T23:07:43.400Z,94055.63
2023-04-12T23:10:12.162Z,94049.56
2023-04-12T23:12:39.912Z,94052.00
2023-04-12T23:15:08.988Z,94045.16
2023-04-12T23:17:37.314Z,94046.97
2023-04-12T23:20:09.842Z,94032.91
2023-04-12T23:22:56.668Z,94020.84
2023-04-12T23:25:38.858Z,94021.66
2023-04-12T23:28:12.516Z,94020.84
2023-04-12T23:30:42.463Z,94032.09
2023-04-12T23:33:12.224Z,94034.88
2023-04-12T23:35:41.196Z,94028.69
2023-04-12T23:38:15.363Z,94027.03
2023-04-12T23:40:43.505Z,94032.09
2023-04-12T23:43:11.159Z,94027.03
2023-04-12T23:45:39.377Z,94027.03
2023-04-12T23:48:07.645Z,94025.25
2023-04-12T23:50:35.363Z,94037.47
2023-04-12T23:53:03.638Z,94029.50
2023-04-12T23:55:32.746Z,94038.31
2023-04-12T23:58:00.787Z,94041.91
